sensor_id;sensor_type;location;lat;lon;timestamp;pressure;altitude;pressure_sealevel;temperature;humidity
77325;BME280;66387;53.440;10.390;2023-02-21T00:01:27;100575.16;;;8.31;99.96
77325;BME280;66387;53.440;10.390;2023-02-21T00:04:11;100571.69;;;8.26;99.88
77325;BME280;66387;53.440;10.390;2023-02-21T00:06:55;100591.50;;;8.27;100.00
77325;BME280;66387;53.440;10.390;2023-02-21T00:09:39;100580.31;;;8.25;99.72
77325;BME280;66387;53.440;10.390;2023-02-21T00:12:23;100578.63;;;8.29;99.69
77325;BME280;66387;53.440;10.390;2023-02-21T00:15:07;100586.34;;;8.27;99.79
77325;BME280;66387;53.440;10.390;2023-02-21T00:17:51;100585.47;;;8.24;100.00
77325;BME280;66387;53.440;10.390;2023-02-21T00:20:35;100581.19;;;8.26;99.84
77325;BME280;66387;53.440;10.390;2023-02-21T00:23:19;100582.88;;;8.27;99.94
77325;BME280;66387;53.440;10.390;2023-02-21T00:26:03;100595.84;;;8.25;100.00
77325;BME280;66387;53.440;10.390;2023-02-21T00:28:46;100599.25;;;8.27;99.69
77325;BME280;66387;53.440;10.390;2023-02-21T00:31:30;100598.44;;;8.28;99.66
77325;BME280;66387;53.440;10.390;2023-02-21T00:34:14;100598.41;;;8.25;100.00
77325;BME280;66387;53.440;10.390;2023-02-21T00:36:58;100594.13;;;8.26;99.44
77325;BME280;66387;53.440;10.390;2023-02-21T00:39:42;100597.56;;;8.23;99.84
77325;BME280;66387;53.440;10.390;2023-02-21T00:42:26;100602.72;;;8.23;99.72
77325;BME280;66387;53.440;10.390;2023-02-21T00:45:10;100599.28;;;8.21;99.72
77325;BME280;66387;53.440;10.390;2023-02-21T00:47:54;100604.47;;;8.21;100.00
77325;BME280;66387;53.440;10.390;2023-02-21T00:50:38;100611.38;;;8.19;99.34
77325;BME280;66387;53.440;10.390;2023-02-21T00:53:25;100611.41;;;8.15;99.55
77325;BME280;66387;53.440;10.390;2023-02-21T00:56:09;100619.97;;;8.21;99.97
77325;BME280;66387;53.440;10.390;2023-02-21T00:58:53;100619.13;;;8.21;99.31
77325;BME280;66387;53.440;10.390;2023-02-21T01:01:37;100610.53;;;8.16;99.51
77325;BME280;66387;53.440;10.390;2023-02-21T01:04:21;100618.31;;;8.11;99.97
77325;BME280;66387;53.440;10.390;2023-02-21T01:07:05;100614.88;;;8.12;99.95
77325;BME280;66387;53.440;10.390;2023-02-21T01:09:49;100607.09;;;8.11;99.50
77325;BME280;66387;53.440;10.390;2023-02-21T01:12:33;100617.44;;;8.12;99.91
77325;BME280;66387;53.440;10.390;2023-02-21T01:15:17;100626.91;;;8.13;99.67
77325;BME280;66387;53.440;10.390;2023-02-21T01:18:01;100631.22;;;8.11;99.67
77325;BME280;66387;53.440;10.390;2023-02-21T01:20:45;100633.81;;;8.11;99.24
77325;BME280;66387;53.440;10.390;2023-02-21T01:23:30;100634.66;;;8.09;99.05
77325;BME280;66387;53.440;10.390;2023-02-21T01:26:14;100632.09;;;8.07;99.32
77325;BME280;66387;53.440;10.390;2023-02-21T01:28:58;100631.25;;;8.08;99.43
77325;BME280;66387;53.440;10.390;2023-02-21T01:31:42;100629.53;;;8.04;99.21
77325;BME280;66387;53.440;10.390;2023-02-21T01:34:26;100634.69;;;8.07;99.54
77325;BME280;66387;53.440;10.390;2023-02-21T01:37:10;100626.94;;;8.04;99.72
77325;BME280;66387;53.440;10.390;2023-02-21T01:39:54;100627.81;;;7.97;99.57
77325;BME280;66387;53.440;10.390;2023-02-21T01:42:37;100628.63;;;8.05;99.69
77325;BME280;66387;53.440;10.390;2023-02-21T01:48:16;100625.25;;;7.94;99.94
77325;BME280;66387;53.440;10.390;2023-02-21T01:51:01;100625.25;;;7.97;99.78
77325;BME280;66387;53.440;10.390;2023-02-21T01:53:46;100617.47;;;7.99;99.68
77325;BME280;66387;53.440;10.390;2023-02-21T01:56:30;100623.53;;;7.98;99.38
77325;BME280;66387;53.440;10.390;2023-02-21T01:59:15;100618.34;;;7.93;99.96
77325;BME280;66387;53.440;10.390;2023-02-21T02:02:05;100618.34;;;7.96;99.79
77325;BME280;66387;53.440;10.390;2023-02-21T02:04:51;100623.50;;;7.96;99.24
77325;BME280;66387;53.440;10.390;2023-02-21T02:07:36;100624.38;;;7.94;99.45
77325;BME280;66387;53.440;10.390;2023-02-21T02:10:20;100615.78;;;7.93;99.44
77325;BME280;66387;53.440;10.390;2023-02-21T02:30:05;100613.16;;;7.92;99.85
77325;BME280;66387;53.440;10.390;2023-02-21T02:35:48;100610.59;;;7.84;100.00
77325;BME280;66387;53.440;10.390;2023-02-21T02:38:29;100602.00;;;7.86;100.00
77325;BME280;66387;53.440;10.390;2023-02-21T02:41:23;100613.19;;;7.81;99.90
77325;BME280;66387;53.440;10.390;2023-02-21T02:44:13;100604.59;;;7.82;99.69
77325;BME280;66387;53.440;10.390;2023-02-21T02:46:40;100608.00;;;7.84;99.66
77325;BME280;66387;53.440;10.390;2023-02-21T02:49:18;100608.00;;;7.84;99.76
77325;BME280;66387;53.440;10.390;2023-02-21T02:51:45;100615.75;;;7.87;99.87
77325;BME280;66387;53.440;10.390;2023-02-21T02:54:11;100614.03;;;7.87;99.32
77325;BME280;66387;53.440;10.390;2023-02-21T02:56:36;100618.34;;;7.84;99.72
77325;BME280;66387;53.440;10.390;2023-02-21T02:59:11;100611.47;;;7.81;99.29
77325;BME280;66387;53.440;10.390;2023-02-21T03:07:19;100611.47;;;7.86;99.43
77325;BME280;66387;53.440;10.390;2023-02-21T03:09:52;100608.91;;;7.83;99.11
77325;BME280;66387;53.440;10.390;2023-02-21T03:12:33;100608.00;;;7.84;99.28
77325;BME280;66387;53.440;10.390;2023-02-21T03:17:30;100611.47;;;7.80;99.38
77325;BME280;66387;53.440;10.390;2023-02-21T03:19:56;100607.16;;;7.80;99.07
77325;BME280;66387;53.440;10.390;2023-02-21T03:22:25;100608.91;;;7.77;99.40
77325;BME280;66387;53.440;10.390;2023-02-21T03:24:55;100614.06;;;7.77;99.49
77325;BME280;66387;53.440;10.390;2023-02-21T03:27:20;100611.50;;;7.74;99.85
77325;BME280;66387;53.440;10.390;2023-02-21T03:29:48;100597.72;;;7.72;99.81
77325;BME280;66387;53.440;10.390;2023-02-21T03:32:22;100607.19;;;7.76;99.80
77325;BME280;66387;53.440;10.390;2023-02-21T03:34:48;100614.09;;;7.75;99.76
77325;BME280;66387;53.440;10.390;2023-02-21T03:37:32;100616.66;;;7.77;99.36
77325;BME280;66387;53.440;10.390;2023-02-21T03:39:59;100613.22;;;7.75;99.79
77325;BME280;66387;53.440;10.390;2023-02-21T03:42:24;100622.69;;;7.73;99.16
77325;BME280;66387;53.440;10.390;2023-02-21T03:44:49;100621.81;;;7.74;99.60
77325;BME280;66387;53.440;10.390;2023-02-21T03:47:15;100614.06;;;7.72;99.52
77325;BME280;66387;53.440;10.390;2023-02-21T03:49:40;100614.06;;;7.72;99.48
77325;BME280;66387;53.440;10.390;2023-02-21T03:52:05;100622.69;;;7.73;99.95
77325;BME280;66387;53.440;10.390;2023-02-21T03:54:31;100618.38;;;7.73;99.24
77325;BME280;66387;53.440;10.390;2023-02-21T03:56:57;100620.97;;;7.73;99.25
77325;BME280;66387;53.440;10.390;2023-02-21T03:59:22;100619.25;;;7.71;99.42
77325;BME280;66387;53.440;10.390;2023-02-21T04:01:47;100617.53;;;7.68;99.50
77325;BME280;66387;53.440;10.390;2023-02-21T04:04:12;100623.56;;;7.72;99.45
77325;BME280;66387;53.440;10.390;2023-02-21T04:06:38;100620.13;;;7.71;99.04
77325;BME280;66387;53.440;10.390;2023-02-21T04:09:03;100618.38;;;7.69;99.38
77325;BME280;66387;53.440;10.390;2023-02-21T04:11:29;100614.09;;;7.66;99.56
77325;BME280;66387;53.440;10.390;2023-02-21T04:13:55;100622.72;;;7.64;99.37
77325;BME280;66387;53.440;10.390;2023-02-21T04:16:20;100635.63;;;7.67;99.05
77325;BME280;66387;53.440;10.390;2023-02-21T04:18:45;100627.03;;;7.65;99.35
77325;BME280;66387;53.440;10.390;2023-02-21T04:21:15;100630.47;;;7.61;99.53
77325;BME280;66387;53.440;10.390;2023-02-21T04:23:41;100633.91;;;7.63;99.76
77325;BME280;66387;53.440;10.390;2023-02-21T04:26:06;100636.50;;;7.61;99.57
77325;BME280;66387;53.440;10.390;2023-02-21T04:28:31;100633.03;;;7.59;99.77
77325;BME280;66387;53.440;10.390;2023-02-21T04:30:56;100639.06;;;7.57;99.65
77325;BME280;66387;53.440;10.390;2023-02-21T04:33:22;100634.75;;;7.56;99.22
77325;BME280;66387;53.440;10.390;2023-02-21T04:35:47;100640.78;;;7.56;99.26
77325;BME280;66387;53.440;10.390;2023-02-21T04:38:12;100633.91;;;7.54;99.77
77325;BME280;66387;53.440;10.390;2023-02-21T04:40:38;100620.09;;;7.58;99.36
77325;BME280;66387;53.440;10.390;2023-02-21T04:43:03;100628.75;;;7.57;98.93
77325;BME280;66387;53.440;10.390;2023-02-21T04:45:28;100629.59;;;7.54;99.10
77325;BME280;66387;53.440;10.390;2023-02-21T04:47:53;100631.31;;;7.57;99.46
77325;BME280;66387;53.440;10.390;2023-02-21T04:50:19;100627.00;;;7.54;99.43
77325;BME280;66387;53.440;10.390;2023-02-21T04:52:46;100630.47;;;7.50;99.37
77325;BME280;66387;53.440;10.390;2023-02-21T04:55:11;100628.72;;;7.48;99.27
77325;BME280;66387;53.440;10.390;2023-02-21T04:57:36;100628.72;;;7.48;99.54
77325;BME280;66387;53.440;10.390;2023-02-21T05:00:02;100625.31;;;7.49;99.15
77325;BME280;66387;53.440;10.390;2023-02-21T05:02:31;100635.63;;;7.49;99.49
77325;BME280;66387;53.440;10.390;2023-02-21T05:04:56;100637.38;;;7.47;99.47
77325;BME280;66387;53.440;10.390;2023-02-21T05:07:21;100638.19;;;7.47;99.41
77325;BME280;66387;53.440;10.390;2023-02-21T05:09:47;100639.91;;;7.44;99.23
77325;BME280;66387;53.440;10.390;2023-02-21T05:12:12;100643.38;;;7.41;99.10
77325;BME280;66387;53.440;10.390;2023-02-21T05:14:38;100644.22;;;7.40;98.74
77325;BME280;66387;53.440;10.390;2023-02-21T05:17:04;100645.09;;;7.42;98.74
77325;BME280;66387;53.440;10.390;2023-02-21T05:19:30;100646.84;;;7.46;98.78
77325;BME280;66387;53.440;10.390;2023-02-21T05:21:57;100639.94;;;7.40;98.44
77325;BME280;66387;53.440;10.390;2023-02-21T05:24:23;100649.41;;;7.42;98.28
77325;BME280;66387;53.440;10.390;2023-02-21T05:26:49;100639.06;;;7.45;98.22
77325;BME280;66387;53.440;10.390;2023-02-21T05:29:15;100633.06;;;7.32;97.83
77325;BME280;66387;53.440;10.390;2023-02-21T05:31:40;100643.38;;;7.30;96.77
77325;BME280;66387;53.440;10.390;2023-02-21T05:34:05;100645.97;;;7.30;96.32
77325;BME280;66387;53.440;10.390;2023-02-21T05:36:30;100639.06;;;7.29;96.13
77325;BME280;66387;53.440;10.390;2023-02-21T05:38:56;100651.13;;;7.27;95.82
77325;BME280;66387;53.440;10.390;2023-02-21T05:41:22;100661.44;;;7.24;95.43
77325;BME280;66387;53.440;10.390;2023-02-21T05:43:48;100658.84;;;7.21;95.96
77325;BME280;66387;53.440;10.390;2023-02-21T05:48:43;100658.00;;;7.13;96.09
77325;BME280;66387;53.440;10.390;2023-02-21T05:51:08;100669.16;;;7.15;96.24
77325;BME280;66387;53.440;10.390;2023-02-21T05:53:33;100661.44;;;7.12;95.24
77325;BME280;66387;53.440;10.390;2023-02-21T05:55:58;100675.19;;;7.08;96.20
77325;BME280;66387;53.440;10.390;2023-02-21T05:58:23;100664.84;;;7.11;95.56
77325;BME280;66387;53.440;10.390;2023-02-21T06:00:50;100661.44;;;7.09;95.33
77325;BME280;66387;53.440;10.390;2023-02-21T06:03:15;100675.19;;;7.08;94.51
77325;BME280;66387;53.440;10.390;2023-02-21T06:05:40;100676.88;;;7.00;93.97
77325;BME280;66387;53.440;10.390;2023-02-21T06:08:06;100677.75;;;6.99;93.66
77325;BME280;66387;53.440;10.390;2023-02-21T06:10:31;100680.34;;;7.02;92.60
77325;BME280;66387;53.440;10.390;2023-02-21T06:12:56;100684.63;;;7.03;92.94
77325;BME280;66387;53.440;10.390;2023-02-21T06:15:21;100699.25;;;7.04;92.36
77325;BME280;66387;53.440;10.390;2023-02-21T06:17:47;100707.00;;;6.92;91.93
77325;BME280;66387;53.440;10.390;2023-02-21T06:20:13;100697.53;;;6.94;91.09
77325;BME280;66387;53.440;10.390;2023-02-21T06:22:42;100703.53;;;6.90;91.77
77325;BME280;66387;53.440;10.390;2023-02-21T06:25:08;100700.06;;;6.85;90.83
77325;BME280;66387;53.440;10.390;2023-02-21T06:27:33;100710.38;;;6.85;91.63
77325;BME280;66387;53.440;10.390;2023-02-21T06:29:59;100719.84;;;6.86;89.99
77325;BME280;66387;53.440;10.390;2023-02-21T06:32:24;100717.28;;;6.84;90.34
77325;BME280;66387;53.440;10.390;2023-02-21T06:34:49;100728.47;;;6.88;89.66
77325;BME280;66387;53.440;10.390;2023-02-21T06:37:16;100714.69;;;6.80;89.60
77325;BME280;66387;53.440;10.390;2023-02-21T06:39:42;100718.13;;;6.82;88.31
77325;BME280;66387;53.440;10.390;2023-02-21T06:42:12;100718.13;;;6.77;89.86
77325;BME280;66387;53.440;10.390;2023-02-21T06:44:38;100719.81;;;6.74;88.98
77325;BME280;66387;53.440;10.390;2023-02-21T06:47:03;100724.09;;;6.72;88.96
77325;BME280;66387;53.440;10.390;2023-02-21T06:49:28;100720.69;;;6.77;89.48
77325;BME280;66387;53.440;10.390;2023-02-21T06:51:53;100722.41;;;6.81;88.10
77325;BME280;66387;53.440;10.390;2023-02-21T06:54:19;100734.44;;;6.76;88.81
77325;BME280;66387;53.440;10.390;2023-02-21T06:56:44;100735.31;;;6.74;89.29
77325;BME280;66387;53.440;10.390;2023-02-21T06:59:10;100728.41;;;6.73;87.70
77325;BME280;66387;53.440;10.390;2023-02-21T07:01:35;100729.25;;;6.75;88.51
77325;BME280;66387;53.440;10.390;2023-02-21T07:04:00;100736.16;;;6.70;88.28
77325;BME280;66387;53.440;10.390;2023-02-21T07:06:25;100730.97;;;6.68;88.60
77325;BME280;66387;53.440;10.390;2023-02-21T07:08:51;100738.75;;;6.79;88.10
77325;BME280;66387;53.440;10.390;2023-02-21T07:11:17;100736.16;;;6.79;88.07
77325;BME280;66387;53.440;10.390;2023-02-21T07:13:53;100744.75;;;6.78;88.89
77325;BME280;66387;53.440;10.390;2023-02-21T07:16:19;100749.09;;;6.83;88.06
77325;BME280;66387;53.440;10.390;2023-02-21T07:18:45;100755.13;;;6.90;87.30
77325;BME280;66387;53.440;10.390;2023-02-21T07:21:11;100755.13;;;6.84;88.21
77325;BME280;66387;53.440;10.390;2023-02-21T07:23:37;100762.84;;;6.82;88.49
77325;BME280;66387;53.440;10.390;2023-02-21T07:26:02;100767.19;;;6.91;87.56
77325;BME280;66387;53.440;10.390;2023-02-21T07:28:27;100769.78;;;6.91;87.81
77325;BME280;66387;53.440;10.390;2023-02-21T07:30:53;100765.47;;;6.93;87.46
77325;BME280;66387;53.440;10.390;2023-02-21T07:33:18;100767.22;;;6.96;87.55
77325;BME280;66387;53.440;10.390;2023-02-21T07:35:43;100772.38;;;6.96;87.57
77325;BME280;66387;53.440;10.390;2023-02-21T07:38:18;100773.22;;;6.93;87.65
77325;BME280;66387;53.440;10.390;2023-02-21T07:40:44;100774.94;;;6.94;86.76
77325;BME280;66387;53.440;10.390;2023-02-21T07:43:09;100778.41;;;7.01;87.43
77325;BME280;66387;53.440;10.390;2023-02-21T07:45:34;100776.69;;;7.04;87.14
77325;BME280;66387;53.440;10.390;2023-02-21T07:48:00;100774.13;;;7.09;86.97
77325;BME280;66387;53.440;10.390;2023-02-21T07:50:25;100774.16;;;7.10;87.35
77325;BME280;66387;53.440;10.390;2023-02-21T07:52:50;100775.84;;;7.07;87.08
77325;BME280;66387;53.440;10.390;2023-02-21T07:55:15;100777.56;;;7.08;86.46
77325;BME280;66387;53.440;10.390;2023-02-21T07:57:41;100780.16;;;7.09;87.61
77325;BME280;66387;53.440;10.390;2023-02-21T08:00:06;100781.03;;;7.14;87.45
77325;BME280;66387;53.440;10.390;2023-02-21T08:02:32;100775.03;;;7.17;86.57
77325;BME280;66387;53.440;10.390;2023-02-21T08:04:57;100785.38;;;7.23;86.58
77325;BME280;66387;53.440;10.390;2023-02-21T08:07:22;100785.38;;;7.24;86.48
77325;BME280;66387;53.440;10.390;2023-02-21T08:09:49;100797.41;;;7.25;87.33
77325;BME280;66387;53.440;10.390;2023-02-21T08:12:15;100795.72;;;7.33;87.38
77325;BME280;66387;53.440;10.390;2023-02-21T08:14:41;100795.72;;;7.30;87.35
77325;BME280;66387;53.440;10.390;2023-02-21T08:17:06;100810.38;;;7.37;87.64
77325;BME280;66387;53.440;10.390;2023-02-21T08:19:31;100806.94;;;7.37;86.93
77325;BME280;66387;53.440;10.390;2023-02-21T08:21:56;100806.09;;;7.43;87.53
77325;BME280;66387;53.440;10.390;2023-02-21T08:24:22;100812.97;;;7.42;87.02
77325;BME280;66387;53.440;10.390;2023-02-21T08:26:47;100814.69;;;7.42;87.24
77325;BME280;66387;53.440;10.390;2023-02-21T08:29:13;100819.00;;;7.47;85.88
77325;BME280;66387;53.440;10.390;2023-02-21T08:31:40;100811.28;;;7.52;85.88
77325;BME280;66387;53.440;10.390;2023-02-21T08:34:06;100813.88;;;7.59;85.36
77325;BME280;66387;53.440;10.390;2023-02-21T08:36:34;100818.19;;;7.62;85.50
77325;BME280;66387;53.440;10.390;2023-02-21T08:38:59;100822.50;;;7.70;85.15
77325;BME280;66387;53.440;10.390;2023-02-21T08:41:25;100822.53;;;7.81;85.10
77325;BME280;66387;53.440;10.390;2023-02-21T08:43:51;100813.91;;;7.82;83.02
77325;BME280;66387;53.440;10.390;2023-02-21T08:46:16;100820.81;;;7.83;84.64
77325;BME280;66387;53.440;10.390;2023-02-21T08:48:42;100819.94;;;7.78;82.45
77325;BME280;66387;53.440;10.390;2023-02-21T08:51:07;100825.13;;;7.82;82.88
77325;BME280;66387;53.440;10.390;2023-02-21T08:53:32;100831.16;;;7.89;82.55
77325;BME280;66387;53.440;10.390;2023-02-21T08:55:58;100830.31;;;7.96;83.31
77325;BME280;66387;53.440;10.390;2023-02-21T08:58:23;100834.59;;;7.93;82.51
77325;BME280;66387;53.440;10.390;2023-02-21T09:00:48;100832.03;;;7.93;81.80
77325;BME280;66387;53.440;10.390;2023-02-21T09:03:14;100835.47;;;8.01;82.82
77325;BME280;66387;53.440;10.390;2023-02-21T09:05:39;100835.50;;;8.08;82.32
77325;BME280;66387;53.440;10.390;2023-02-21T09:08:04;100836.34;;;8.03;81.91
77325;BME280;66387;53.440;10.390;2023-02-21T09:10:31;100840.63;;;8.05;80.95
77325;BME280;66387;53.440;10.390;2023-02-21T09:13:03;100835.47;;;8.13;80.78
77325;BME280;66387;53.440;10.390;2023-02-21T09:15:29;100844.94;;;8.27;81.62
77325;BME280;66387;53.440;10.390;2023-02-21T09:17:54;100850.16;;;8.26;81.73
77325;BME280;66387;53.440;10.390;2023-02-21T09:20:23;100838.97;;;8.33;81.74
77325;BME280;66387;53.440;10.390;2023-02-21T09:22:49;100849.31;;;8.28;79.69
77325;BME280;66387;53.440;10.390;2023-02-21T09:25:16;100848.47;;;8.34;80.26
77325;BME280;66387;53.440;10.390;2023-02-21T09:27:42;100852.75;;;8.38;80.10
77325;BME280;66387;53.440;10.390;2023-02-21T09:30:13;100859.66;;;8.44;81.21
77325;BME280;66387;53.440;10.390;2023-02-21T09:32:39;100861.38;;;8.51;81.08
77325;BME280;66387;53.440;10.390;2023-02-21T09:35:05;100868.28;;;8.55;80.45
77325;BME280;66387;53.440;10.390;2023-02-21T09:37:31;100875.19;;;8.45;80.03
77325;BME280;66387;53.440;10.390;2023-02-21T09:39:57;100882.94;;;8.51;79.90
77325;BME280;66387;53.440;10.390;2023-02-21T09:42:28;100874.31;;;8.38;80.37
77325;BME280;66387;53.440;10.390;2023-02-21T09:44:54;100882.06;;;8.42;80.23
77325;BME280;66387;53.440;10.390;2023-02-21T09:47:33;100878.63;;;8.40;80.46
77325;BME280;66387;53.440;10.390;2023-02-21T09:50:03;100879.47;;;8.51;82.11
77325;BME280;66387;53.440;10.390;2023-02-21T09:52:38;100886.38;;;8.52;80.55
77325;BME280;66387;53.440;10.390;2023-02-21T09:55:33;100884.66;;;8.63;80.01
77325;BME280;66387;53.440;10.390;2023-02-21T09:58:00;100890.69;;;8.69;79.86
77325;BME280;66387;53.440;10.390;2023-02-21T10:00:34;100891.56;;;8.58;78.47
77325;BME280;66387;53.440;10.390;2023-02-21T10:06:25;100890.69;;;8.60;80.66
77325;BME280;66387;53.440;10.390;2023-02-21T10:09:02;100897.56;;;8.60;79.63
77325;BME280;66387;53.440;10.390;2023-02-21T10:14:28;100891.56;;;8.67;79.80
77325;BME280;66387;53.440;10.390;2023-02-21T10:17:09;100895.00;;;8.64;79.60
77325;BME280;66387;53.440;10.390;2023-02-21T10:19:42;100891.53;;;8.61;78.88
77325;BME280;66387;53.440;10.390;2023-02-21T10:22:20;100899.31;;;8.68;78.10
77325;BME280;66387;53.440;10.390;2023-02-21T10:24:47;100901.88;;;8.71;79.01
77325;BME280;66387;53.440;10.390;2023-02-21T10:27:17;100890.69;;;8.81;78.38
77325;BME280;66387;53.440;10.390;2023-02-21T10:29:49;100897.53;;;8.93;78.79
77325;BME280;66387;53.440;10.390;2023-02-21T10:32:16;100893.13;;;9.27;77.47
77325;BME280;66387;53.440;10.390;2023-02-21T10:34:44;100893.91;;;9.52;75.66
77325;BME280;66387;53.440;10.390;2023-02-21T10:39:55;100892.09;;;9.66;74.79
77325;BME280;66387;53.440;10.390;2023-02-21T10:42:36;100896.34;;;9.87;74.86
77325;BME280;66387;53.440;10.390;2023-02-21T10:45:03;100898.16;;;9.62;73.88
77325;BME280;66387;53.440;10.390;2023-02-21T10:48:23;100897.31;;;9.63;74.38
77325;BME280;66387;53.440;10.390;2023-02-21T10:53:22;100904.19;;;9.70;74.07
77325;BME280;66387;53.440;10.390;2023-02-21T10:58:50;100904.97;;;9.85;73.10
77325;BME280;66387;53.440;10.390;2023-02-21T11:01:43;100900.63;;;9.89;73.15
77325;BME280;66387;53.440;10.390;2023-02-21T11:06:53;100905.03;;;9.70;72.61
77325;BME280;66387;53.440;10.390;2023-02-21T11:09:29;100897.31;;;9.60;73.43
77325;BME280;66387;53.440;10.390;2023-02-21T11:15:10;100903.19;;;9.92;73.65
77325;BME280;66387;53.440;10.390;2023-02-21T11:17:30;100892.72;;;10.09;71.54
77325;BME280;66387;53.440;10.390;2023-02-21T11:20:18;100908.28;;;10.07;70.22
77325;BME280;66387;53.440;10.390;2023-02-21T11:22:46;100897.78;;;10.31;70.05
77325;BME280;66387;53.440;10.390;2023-02-21T11:30:26;100895.94;;;10.47;69.88
77325;BME280;66387;53.440;10.390;2023-02-21T11:32:54;100897.84;;;10.22;70.24
77325;BME280;66387;53.440;10.390;2023-02-21T11:35:29;100885.75;;;10.14;71.22
77325;BME280;66387;53.440;10.390;2023-02-21T11:38:02;100898.75;;;10.18;70.74
77325;BME280;66387;53.440;10.390;2023-02-21T11:40:47;100889.00;;;10.46;69.53
77325;BME280;66387;53.440;10.390;2023-02-21T11:43:20;100897.91;;;10.15;69.39
77325;BME280;66387;53.440;10.390;2023-02-21T11:45:59;100890.97;;;10.17;70.00
77325;BME280;66387;53.440;10.390;2023-02-21T11:48:28;100889.19;;;10.22;70.90
77325;BME280;66387;53.440;10.390;2023-02-21T11:50:59;100891.63;;;10.45;70.87
77325;BME280;66387;53.440;10.390;2023-02-21T11:53:33;100888.13;;;10.47;69.46
77325;BME280;66387;53.440;10.390;2023-02-21T11:59:01;100878.78;;;11.16;68.57
77325;BME280;66387;53.440;10.390;2023-02-21T12:01:39;100882.22;;;11.21;67.25
77325;BME280;66387;53.440;10.390;2023-02-21T12:07:12;100880.72;;;10.99;69.11
77325;BME280;66387;53.440;10.390;2023-02-21T12:09:50;100878.59;;;11.35;67.69
77325;BME280;66387;53.440;10.390;2023-02-21T12:16:04;100888.88;;;11.44;67.89
77325;BME280;66387;53.440;10.390;2023-02-21T12:21:32;100892.81;;;11.00;69.59
77325;BME280;66387;53.440;10.390;2023-02-21T12:26:46;100892.34;;;10.62;71.99
77325;BME280;66387;53.440;10.390;2023-02-21T12:32:17;100890.00;;;10.35;74.14
77325;BME280;66387;53.440;10.390;2023-02-21T12:37:45;100892.03;;;9.81;76.05
77325;BME280;66387;53.440;10.390;2023-02-21T12:40:27;100892.91;;;9.83;76.65
77325;BME280;66387;53.440;10.390;2023-02-21T12:50:57;100895.59;;;9.56;79.05
77325;BME280;66387;53.440;10.390;2023-02-21T12:53:50;100899.94;;;9.54;80.29
77325;BME280;66387;53.440;10.390;2023-02-21T12:56:24;100892.22;;;9.39;81.84
77325;BME280;66387;53.440;10.390;2023-02-21T13:04:21;100893.09;;;9.38;81.74
77325;BME280;66387;53.440;10.390;2023-02-21T13:07:03;100894.84;;;9.34;82.93
77325;BME280;66387;53.440;10.390;2023-02-21T13:09:37;100895.66;;;9.41;81.72
77325;BME280;66387;53.440;10.390;2023-02-21T13:12:12;100887.13;;;9.20;82.36
77325;BME280;66387;53.440;10.390;2023-02-21T13:14:44;100900.03;;;9.22;83.35
77325;BME280;66387;53.440;10.390;2023-02-21T13:17:13;100894.03;;;9.12;83.76
77325;BME280;66387;53.440;10.390;2023-02-21T13:25:11;100888.00;;;9.13;84.35
77325;BME280;66387;53.440;10.390;2023-02-21T13:27:53;100884.56;;;9.10;84.28
77325;BME280;66387;53.440;10.390;2023-02-21T13:30:37;100882.84;;;9.04;84.22
77325;BME280;66387;53.440;10.390;2023-02-21T13:33:03;100883.72;;;9.02;84.58
77325;BME280;66387;53.440;10.390;2023-02-21T13:35:32;100883.72;;;8.99;84.39
77325;BME280;66387;53.440;10.390;2023-02-21T13:37:59;100882.88;;;8.98;84.76
77325;BME280;66387;53.440;10.390;2023-02-21T13:40:37;100880.25;;;9.01;84.13
77325;BME280;66387;53.440;10.390;2023-02-21T13:43:11;100883.72;;;8.97;84.21
77325;BME280;66387;53.440;10.390;2023-02-21T13:45:38;100884.59;;;9.02;83.33
77325;BME280;66387;53.440;10.390;2023-02-21T14:01:13;100875.06;;;9.07;83.40
77325;BME280;66387;53.440;10.390;2023-02-21T14:03:39;100879.38;;;9.10;82.54
77325;BME280;66387;53.440;10.390;2023-02-21T14:08:43;100882.81;;;9.07;83.10
77325;BME280;66387;53.440;10.390;2023-02-21T14:11:16;100881.13;;;9.00;83.35
77325;BME280;66387;53.440;10.390;2023-02-21T14:13:49;100880.22;;;9.07;83.48
77325;BME280;66387;53.440;10.390;2023-02-21T14:16:18;100883.72;;;9.02;83.49
77325;BME280;66387;53.440;10.390;2023-02-21T14:18:56;100885.44;;;9.01;82.78
77325;BME280;66387;53.440;10.390;2023-02-21T14:21:45;100885.44;;;8.97;83.15
77325;BME280;66387;53.440;10.390;2023-02-21T14:24:15;100881.16;;;8.96;83.35
77325;BME280;66387;53.440;10.390;2023-02-21T14:29:38;100881.13;;;9.03;82.85
77325;BME280;66387;53.440;10.390;2023-02-21T14:45:28;100883.56;;;9.49;82.59
77325;BME280;66387;53.440;10.390;2023-02-21T14:50:45;100887.84;;;9.53;80.96
77325;BME280;66387;53.440;10.390;2023-02-21T14:56:39;100893.94;;;9.41;80.89
77325;BME280;66387;53.440;10.390;2023-02-21T15:05:13;100876.56;;;9.63;78.12
77325;BME280;66387;53.440;10.390;2023-02-21T15:07:50;100879.22;;;9.49;78.33
77325;BME280;66387;53.440;10.390;2023-02-21T15:12:48;100883.59;;;9.33;79.33
77325;BME280;66387;53.440;10.390;2023-02-21T15:15:17;100887.94;;;9.25;78.91
77325;BME280;66387;53.440;10.390;2023-02-21T15:17:53;100894.06;;;9.06;79.51
77325;BME280;66387;53.440;10.390;2023-02-21T15:20:20;100894.06;;;9.00;79.74
77325;BME280;66387;53.440;10.390;2023-02-21T15:22:54;100894.09;;;8.96;80.36
77325;BME280;66387;53.440;10.390;2023-02-21T15:25:20;100902.72;;;8.92;80.51
77325;BME280;66387;53.440;10.390;2023-02-21T15:32:42;100900.16;;;8.79;81.28
77325;BME280;66387;53.440;10.390;2023-02-21T15:35:15;100897.56;;;8.79;80.89
77325;BME280;66387;53.440;10.390;2023-02-21T15:37:44;100897.56;;;8.81;80.92
77325;BME280;66387;53.440;10.390;2023-02-21T15:40:19;100889.81;;;8.73;80.97
77325;BME280;66387;53.440;10.390;2023-02-21T15:42:46;100893.25;;;8.65;81.56